sensor_id;sensor_type;location;lat;lon;timestamp;P1;durP1;ratioP1;P2;durP2;ratioP2
18689;SDS011;9782;52.930;15.562;2022-11-18T00:01:09;18.90;;;13.40;;
18689;SDS011;9782;52.930;15.562;2022-11-18T00:03:38;19.37;;;12.93;;
18689;SDS011;9782;52.930;15.562;2022-11-18T00:06:06;22.93;;;12.97;;
18689;SDS011;9782;52.930;15.562;2022-11-18T00:08:36;18.30;;;12.57;;
18689;SDS011;9782;52.930;15.562;2022-11-18T00:11:05;17.23;;;11.43;;
18689;SDS011;9782;52.930;15.562;2022-11-18T00:13:33;19.50;;;11.13;;
18689;SDS011;9782;52.930;15.562;2022-11-18T00:16:17;21.77;;;14.03;;
18689;SDS011;9782;52.930;15.562;2022-11-18T00:18:44;21.37;;;13.33;;
18689;SDS011;9782;52.930;15.562;2022-11-18T00:21:11;23.50;;;14.00;;
18689;SDS011;9782;52.930;15.562;2022-11-18T00:23:39;24.13;;;14.47;;
18689;SDS011;9782;52.930;15.562;2022-11-18T00:26:09;21.63;;;14.40;;
18689;SDS011;9782;52.930;15.562;2022-11-18T00:28:38;21.90;;;14.33;;
18689;SDS011;9782;52.930;15.562;2022-11-18T00:31:06;25.73;;;16.47;;
18689;SDS011;9782;52.930;15.562;2022-11-18T00:33:34;24.63;;;15.70;;
18689;SDS011;9782;52.930;15.562;2022-11-18T00:36:02;19.17;;;12.43;;
18689;SDS011;9782;52.930;15.562;2022-11-18T00:38:29;23.47;;;14.13;;
18689;SDS011;9782;52.930;15.562;2022-11-18T00:40:59;23.17;;;14.60;;
18689;SDS011;9782;52.930;15.562;2022-11-18T00:43:28;22.70;;;13.03;;
18689;SDS011;9782;52.930;15.562;2022-11-18T00:45:54;22.47;;;15.00;;
18689;SDS011;9782;52.930;15.562;2022-11-18T00:48:22;24.33;;;15.50;;
18689;SDS011;9782;52.930;15.562;2022-11-18T00:50:50;22.07;;;14.07;;
18689;SDS011;9782;52.930;15.562;2022-11-18T00:53:18;22.70;;;13.93;;
18689;SDS011;9782;52.930;15.562;2022-11-18T00:55:46;17.27;;;9.60;;
18689;SDS011;9782;52.930;15.562;2022-11-18T00:58:13;25.63;;;14.47;;
18689;SDS011;9782;52.930;15.562;2022-11-18T01:00:42;23.20;;;14.87;;
18689;SDS011;9782;52.930;15.562;2022-11-18T01:03:10;22.93;;;14.70;;
18689;SDS011;9782;52.930;15.562;2022-11-18T01:05:38;22.90;;;14.47;;
18689;SDS011;9782;52.930;15.562;2022-11-18T01:08:06;19.53;;;11.83;;
18689;SDS011;9782;52.930;15.562;2022-11-18T01:10:35;24.03;;;14.00;;
18689;SDS011;9782;52.930;15.562;2022-11-18T01:13:03;21.80;;;14.10;;
18689;SDS011;9782;52.930;15.562;2022-11-18T01:15:46;22.17;;;12.53;;
18689;SDS011;9782;52.930;15.562;2022-11-18T01:18:14;23.00;;;13.77;;
18689;SDS011;9782;52.930;15.562;2022-11-18T01:20:42;21.87;;;14.07;;
18689;SDS011;9782;52.930;15.562;2022-11-18T01:23:09;21.93;;;12.57;;
18689;SDS011;9782;52.930;15.562;2022-11-18T01:25:38;23.60;;;15.30;;
18689;SDS011;9782;52.930;15.562;2022-11-18T01:28:06;19.40;;;10.40;;
18689;SDS011;9782;52.930;15.562;2022-11-18T01:30:33;23.60;;;14.40;;
18689;SDS011;9782;52.930;15.562;2022-11-18T01:33:02;20.27;;;11.97;;
18689;SDS011;9782;52.930;15.562;2022-11-18T01:35:32;24.83;;;14.53;;
18689;SDS011;9782;52.930;15.562;2022-11-18T01:38:00;25.47;;;14.37;;
18689;SDS011;9782;52.930;15.562;2022-11-18T01:40:27;24.87;;;14.90;;
18689;SDS011;9782;52.930;15.562;2022-11-18T01:42:55;23.17;;;14.07;;
18689;SDS011;9782;52.930;15.562;2022-11-18T01:45:27;24.13;;;15.07;;
18689;SDS011;9782;52.930;15.562;2022-11-18T01:47:59;28.33;;;16.37;;
18689;SDS011;9782;52.930;15.562;2022-11-18T01:50:33;29.83;;;16.00;;
18689;SDS011;9782;52.930;15.562;2022-11-18T01:53:04;26.73;;;15.87;;
18689;SDS011;9782;52.930;15.562;2022-11-18T01:55:34;22.30;;;13.07;;
18689;SDS011;9782;52.930;15.562;2022-11-18T01:58:08;23.43;;;14.80;;
18689;SDS011;9782;52.930;15.562;2022-11-18T02:00:39;21.27;;;13.37;;
18689;SDS011;9782;52.930;15.562;2022-11-18T02:03:08;33.47;;;16.07;;
18689;SDS011;9782;52.930;15.562;2022-11-18T02:05:36;23.63;;;14.60;;
18689;SDS011;9782;52.930;15.562;2022-11-18T02:08:05;27.77;;;16.33;;
18689;SDS011;9782;52.930;15.562;2022-11-18T02:10:33;24.87;;;15.63;;
18689;SDS011;9782;52.930;15.562;2022-11-18T02:13:00;32.23;;;18.30;;
18689;SDS011;9782;52.930;15.562;2022-11-18T02:15:32;25.70;;;16.17;;
18689;SDS011;9782;52.930;15.562;2022-11-18T02:18:13;26.77;;;14.83;;
18689;SDS011;9782;52.930;15.562;2022-11-18T02:20:46;29.83;;;17.20;;
18689;SDS011;9782;52.930;15.562;2022-11-18T02:26:33;32.03;;;16.87;;
18689;SDS011;9782;52.930;15.562;2022-11-18T02:29:23;27.50;;;16.20;;
18689;SDS011;9782;52.930;15.562;2022-11-18T02:31:54;30.97;;;16.17;;
18689;SDS011;9782;52.930;15.562;2022-11-18T02:34:33;32.57;;;17.63;;
18689;SDS011;9782;52.930;15.562;2022-11-18T02:37:05;29.20;;;17.87;;
18689;SDS011;9782;52.930;15.562;2022-11-18T02:39:38;25.20;;;15.37;;
18689;SDS011;9782;52.930;15.562;2022-11-18T02:42:09;30.17;;;17.47;;
18689;SDS011;9782;52.930;15.562;2022-11-18T02:44:42;28.90;;;17.00;;
18689;SDS011;9782;52.930;15.562;2022-11-18T02:47:13;28.10;;;16.33;;
18689;SDS011;9782;52.930;15.562;2022-11-18T02:49:42;25.53;;;14.30;;
18689;SDS011;9782;52.930;15.562;2022-11-18T02:52:12;30.33;;;17.23;;
18689;SDS011;9782;52.930;15.562;2022-11-18T02:54:43;28.87;;;16.53;;
18689;SDS011;9782;52.930;15.562;2022-11-18T02:57:12;27.80;;;16.67;;
18689;SDS011;9782;52.930;15.562;2022-11-18T02:59:42;26.17;;;15.80;;
18689;SDS011;9782;52.930;15.562;2022-11-18T03:02:11;24.20;;;14.57;;
18689;SDS011;9782;52.930;15.562;2022-11-18T03:04:42;25.57;;;16.63;;
18689;SDS011;9782;52.930;15.562;2022-11-18T03:07:11;20.53;;;13.20;;
18689;SDS011;9782;52.930;15.562;2022-11-18T03:09:44;26.53;;;13.77;;
18689;SDS011;9782;52.930;15.562;2022-11-18T03:12:16;29.50;;;17.37;;
18689;SDS011;9782;52.930;15.562;2022-11-18T03:14:54;25.93;;;16.07;;
18689;SDS011;9782;52.930;15.562;2022-11-18T03:17:31;27.87;;;14.47;;
18689;SDS011;9782;52.930;15.562;2022-11-18T03:20:08;26.57;;;15.27;;
18689;SDS011;9782;52.930;15.562;2022-11-18T03:22:41;24.77;;;15.27;;
18689;SDS011;9782;52.930;15.562;2022-11-18T03:25:15;27.20;;;16.10;;
18689;SDS011;9782;52.930;15.562;2022-11-18T03:27:47;26.60;;;16.23;;
18689;SDS011;9782;52.930;15.562;2022-11-18T03:30:21;26.57;;;15.17;;
18689;SDS011;9782;52.930;15.562;2022-11-18T03:32:50;25.57;;;14.60;;
18689;SDS011;9782;52.930;15.562;2022-11-18T03:35:22;24.33;;;14.80;;
18689;SDS011;9782;52.930;15.562;2022-11-18T03:37:51;27.57;;;15.23;;
18689;SDS011;9782;52.930;15.562;2022-11-18T03:40:25;25.93;;;15.10;;
18689;SDS011;9782;52.930;15.562;2022-11-18T03:42:55;25.77;;;14.73;;
18689;SDS011;9782;52.930;15.562;2022-11-18T03:45:30;25.77;;;15.23;;
18689;SDS011;9782;52.930;15.562;2022-11-18T03:48:02;25.93;;;14.30;;
18689;SDS011;9782;52.930;15.562;2022-11-18T03:50:35;24.83;;;13.90;;
18689;SDS011;9782;52.930;15.562;2022-11-18T03:53:06;22.10;;;12.67;;
18689;SDS011;9782;52.930;15.562;2022-11-18T03:55:36;21.30;;;12.53;;
18689;SDS011;9782;52.930;15.562;2022-11-18T03:58:08;23.37;;;13.03;;
18689;SDS011;9782;52.930;15.562;2022-11-18T04:00:42;19.67;;;11.00;;
18689;SDS011;9782;52.930;15.562;2022-11-18T04:03:11;23.10;;;14.17;;
18689;SDS011;9782;52.930;15.562;2022-11-18T04:05:39;20.87;;;12.67;;
18689;SDS011;9782;52.930;15.562;2022-11-18T04:08:09;24.00;;;13.23;;
18689;SDS011;9782;52.930;15.562;2022-11-18T04:10:39;25.33;;;13.90;;
18689;SDS011;9782;52.930;15.562;2022-11-18T04:13:12;23.17;;;12.33;;
18689;SDS011;9782;52.930;15.562;2022-11-18T04:15:45;22.60;;;14.50;;
18689;SDS011;9782;52.930;15.562;2022-11-18T04:18:12;17.83;;;10.97;;
18689;SDS011;9782;52.930;15.562;2022-11-18T04:20:39;23.77;;;12.73;;
18689;SDS011;9782;52.930;15.562;2022-11-18T04:23:06;20.50;;;11.83;;
18689;SDS011;9782;52.930;15.562;2022-11-18T04:25:34;23.13;;;13.23;;
18689;SDS011;9782;52.930;15.562;2022-11-18T04:28:02;19.17;;;10.50;;
18689;SDS011;9782;52.930;15.562;2022-11-18T04:30:29;16.97;;;10.30;;
18689;SDS011;9782;52.930;15.562;2022-11-18T04:32:58;21.33;;;11.43;;
18689;SDS011;9782;52.930;15.562;2022-11-18T04:35:25;20.47;;;11.20;;
18689;SDS011;9782;52.930;15.562;2022-11-18T04:37:52;22.03;;;12.70;;
18689;SDS011;9782;52.930;15.562;2022-11-18T04:40:19;17.03;;;9.97;;
18689;SDS011;9782;52.930;15.562;2022-11-18T04:42:46;18.70;;;9.77;;
18689;SDS011;9782;52.930;15.562;2022-11-18T04:45:13;16.03;;;9.00;;
18689;SDS011;9782;52.930;15.562;2022-11-18T04:47:40;17.30;;;10.60;;
18689;SDS011;9782;52.930;15.562;2022-11-18T04:50:09;16.60;;;9.77;;
18689;SDS011;9782;52.930;15.562;2022-11-18T04:52:36;18.63;;;11.23;;
18689;SDS011;9782;52.930;15.562;2022-11-18T04:55:03;18.50;;;11.23;;
18689;SDS011;9782;52.930;15.562;2022-11-18T04:57:30;17.67;;;10.47;;
18689;SDS011;9782;52.930;15.562;2022-11-18T04:59:58;15.00;;;8.33;;
18689;SDS011;9782;52.930;15.562;2022-11-18T05:02:24;16.03;;;9.80;;
18689;SDS011;9782;52.930;15.562;2022-11-18T05:04:51;16.30;;;10.03;;
18689;SDS011;9782;52.930;15.562;2022-11-18T05:07:20;14.93;;;8.67;;
18689;SDS011;9782;52.930;15.562;2022-11-18T05:09:47;14.70;;;8.27;;
18689;SDS011;9782;52.930;15.562;2022-11-18T05:12:14;14.70;;;8.77;;
18689;SDS011;9782;52.930;15.562;2022-11-18T05:14:58;12.97;;;7.90;;
18689;SDS011;9782;52.930;15.562;2022-11-18T05:17:26;14.47;;;8.40;;
18689;SDS011;9782;52.930;15.562;2022-11-18T05:19:53;12.00;;;6.87;;
18689;SDS011;9782;52.930;15.562;2022-11-18T05:22:21;12.03;;;7.60;;
18689;SDS011;9782;52.930;15.562;2022-11-18T05:24:48;10.70;;;6.10;;
18689;SDS011;9782;52.930;15.562;2022-11-18T05:27:15;13.50;;;8.37;;
18689;SDS011;9782;52.930;15.562;2022-11-18T05:29:42;11.23;;;6.53;;
18689;SDS011;9782;52.930;15.562;2022-11-18T05:32:09;10.80;;;7.23;;
18689;SDS011;9782;52.930;15.562;2022-11-18T05:34:36;14.93;;;6.97;;
18689;SDS011;9782;52.930;15.562;2022-11-18T05:37:04;10.37;;;7.03;;
18689;SDS011;9782;52.930;15.562;2022-11-18T05:39:33;11.33;;;7.77;;
18689;SDS011;9782;52.930;15.562;2022-11-18T05:42:00;11.23;;;6.50;;
18689;SDS011;9782;52.930;15.562;2022-11-18T05:44:46;10.57;;;6.80;;
18689;SDS011;9782;52.930;15.562;2022-11-18T05:47:14;9.17;;;5.57;;
18689;SDS011;9782;52.930;15.562;2022-11-18T05:49:41;9.90;;;7.03;;
18689;SDS011;9782;52.930;15.562;2022-11-18T05:52:08;11.53;;;7.33;;
18689;SDS011;9782;52.930;15.562;2022-11-18T05:54:38;9.70;;;6.60;;
18689;SDS011;9782;52.930;15.562;2022-11-18T05:57:09;12.57;;;7.77;;
18689;SDS011;9782;52.930;15.562;2022-11-18T05:59:36;10.13;;;6.87;;
18689;SDS011;9782;52.930;15.562;2022-11-18T06:02:04;10.30;;;7.13;;
18689;SDS011;9782;52.930;15.562;2022-11-18T06:04:37;9.50;;;7.20;;
18689;SDS011;9782;52.930;15.562;2022-11-18T06:07:08;10.30;;;6.97;;
18689;SDS011;9782;52.930;15.562;2022-11-18T06:09:39;9.63;;;6.73;;
18689;SDS011;9782;52.930;15.562;2022-11-18T06:12:11;13.17;;;8.23;;
18689;SDS011;9782;52.930;15.562;2022-11-18T06:14:43;12.80;;;7.73;;
18689;SDS011;9782;52.930;15.562;2022-11-18T06:17:15;11.03;;;7.90;;
18689;SDS011;9782;52.930;15.562;2022-11-18T06:19:45;9.37;;;7.13;;
18689;SDS011;9782;52.930;15.562;2022-11-18T06:22:12;10.77;;;7.43;;
18689;SDS011;9782;52.930;15.562;2022-11-18T06:24:41;11.70;;;8.47;;
18689;SDS011;9782;52.930;15.562;2022-11-18T06:27:09;12.37;;;8.60;;
18689;SDS011;9782;52.930;15.562;2022-11-18T06:29:37;8.83;;;6.13;;
18689;SDS011;9782;52.930;15.562;2022-11-18T06:32:04;9.47;;;6.57;;
18689;SDS011;9782;52.930;15.562;2022-11-18T06:34:31;8.80;;;6.23;;
18689;SDS011;9782;52.930;15.562;2022-11-18T06:36:58;7.97;;;6.10;;
18689;SDS011;9782;52.930;15.562;2022-11-18T06:39:25;9.30;;;5.80;;
18689;SDS011;9782;52.930;15.562;2022-11-18T06:41:54;7.17;;;5.13;;
18689;SDS011;9782;52.930;15.562;2022-11-18T06:44:21;8.67;;;6.03;;
18689;SDS011;9782;52.930;15.562;2022-11-18T06:46:48;8.00;;;5.37;;
18689;SDS011;9782;52.930;15.562;2022-11-18T06:49:19;8.77;;;6.50;;
18689;SDS011;9782;52.930;15.562;2022-11-18T06:51:47;8.57;;;5.07;;
18689;SDS011;9782;52.930;15.562;2022-11-18T06:54:14;8.43;;;5.63;;
18689;SDS011;9782;52.930;15.562;2022-11-18T06:56:41;8.23;;;5.50;;
18689;SDS011;9782;52.930;15.562;2022-11-18T06:59:09;7.27;;;5.47;;
18689;SDS011;9782;52.930;15.562;2022-11-18T07:01:37;7.93;;;5.70;;
18689;SDS011;9782;52.930;15.562;2022-11-18T07:04:06;8.47;;;5.93;;
18689;SDS011;9782;52.930;15.562;2022-11-18T07:06:33;8.53;;;5.50;;
18689;SDS011;9782;52.930;15.562;2022-11-18T07:09:02;7.73;;;5.33;;
18689;SDS011;9782;52.930;15.562;2022-11-18T07:11:31;7.90;;;4.80;;
18689;SDS011;9782;52.930;15.562;2022-11-18T07:13:58;8.40;;;5.67;;
18689;SDS011;9782;52.930;15.562;2022-11-18T07:16:27;6.20;;;4.67;;
18689;SDS011;9782;52.930;15.562;2022-11-18T07:18:54;6.77;;;4.37;;
18689;SDS011;9782;52.930;15.562;2022-11-18T07:21:22;8.73;;;5.57;;
18689;SDS011;9782;52.930;15.562;2022-11-18T07:23:51;7.83;;;4.77;;
18689;SDS011;9782;52.930;15.562;2022-11-18T07:26:19;6.60;;;5.17;;
18689;SDS011;9782;52.930;15.562;2022-11-18T07:28:46;5.93;;;4.50;;
18689;SDS011;9782;52.930;15.562;2022-11-18T07:31:14;6.30;;;4.07;;
18689;SDS011;9782;52.930;15.562;2022-11-18T07:33:44;4.27;;;3.07;;
18689;SDS011;9782;52.930;15.562;2022-11-18T07:36:12;5.43;;;3.90;;
18689;SDS011;9782;52.930;15.562;2022-11-18T07:38:41;4.07;;;3.23;;
18689;SDS011;9782;52.930;15.562;2022-11-18T07:41:08;6.10;;;4.30;;
18689;SDS011;9782;52.930;15.562;2022-11-18T07:43:37;6.13;;;4.70;;
18689;SDS011;9782;52.930;15.562;2022-11-18T07:46:08;4.93;;;3.63;;
18689;SDS011;9782;52.930;15.562;2022-11-18T07:48:37;5.87;;;4.50;;
18689;SDS011;9782;52.930;15.562;2022-11-18T07:51:05;5.87;;;4.30;;
18689;SDS011;9782;52.930;15.562;2022-11-18T07:53:33;7.87;;;4.23;;
18689;SDS011;9782;52.930;15.562;2022-11-18T07:56:01;6.63;;;4.47;;
18689;SDS011;9782;52.930;15.562;2022-11-18T07:58:28;5.60;;;4.30;;
18689;SDS011;9782;52.930;15.562;2022-11-18T08:00:56;6.90;;;4.53;;
18689;SDS011;9782;52.930;15.562;2022-11-18T08:03:24;6.30;;;4.53;;
18689;SDS011;9782;52.930;15.562;2022-11-18T08:05:52;7.33;;;4.60;;
18689;SDS011;9782;52.930;15.562;2022-11-18T08:08:20;5.57;;;4.17;;
18689;SDS011;9782;52.930;15.562;2022-11-18T08:10:47;5.87;;;4.20;;
18689;SDS011;9782;52.930;15.562;2022-11-18T08:13:14;7.47;;;4.33;;
18689;SDS011;9782;52.930;15.562;2022-11-18T08:15:41;5.53;;;4.17;;
18689;SDS011;9782;52.930;15.562;2022-11-18T08:18:08;4.50;;;3.77;;
18689;SDS011;9782;52.930;15.562;2022-11-18T08:20:35;5.20;;;4.00;;
18689;SDS011;9782;52.930;15.562;2022-11-18T08:23:03;5.27;;;3.77;;
18689;SDS011;9782;52.930;15.562;2022-11-18T08:25:31;5.63;;;4.50;;
18689;SDS011;9782;52.930;15.562;2022-11-18T08:27:58;5.17;;;3.47;;
18689;SDS011;9782;52.930;15.562;2022-11-18T08:30:25;4.43;;;3.37;;
18689;SDS011;9782;52.930;15.562;2022-11-18T08:32:52;5.03;;;3.70;;
18689;SDS011;9782;52.930;15.562;2022-11-18T08:35:19;5.10;;;3.07;;
18689;SDS011;9782;52.930;15.562;2022-11-18T08:37:46;5.07;;;3.40;;
18689;SDS011;9782;52.930;15.562;2022-11-18T08:40:13;4.87;;;3.47;;
18689;SDS011;9782;52.930;15.562;2022-11-18T08:42:42;5.23;;;3.63;;
18689;SDS011;9782;52.930;15.562;2022-11-18T08:45:09;4.97;;;3.60;;
18689;SDS011;9782;52.930;15.562;2022-11-18T08:47:37;4.77;;;3.50;;
18689;SDS011;9782;52.930;15.562;2022-11-18T08:50:04;3.90;;;2.80;;
18689;SDS011;9782;52.930;15.562;2022-11-18T08:52:33;4.93;;;3.40;;
18689;SDS011;9782;52.930;15.562;2022-11-18T08:55:00;4.97;;;3.77;;
18689;SDS011;9782;52.930;15.562;2022-11-18T08:57:29;4.23;;;3.33;;
18689;SDS011;9782;52.930;15.562;2022-11-18T08:59:58;4.83;;;3.47;;
18689;SDS011;9782;52.930;15.562;2022-11-18T09:02:25;4.70;;;3.77;;
18689;SDS011;9782;52.930;15.562;2022-11-18T09:04:52;4.50;;;3.40;;
18689;SDS011;9782;52.930;15.562;2022-11-18T09:07:19;4.93;;;3.67;;
18689;SDS011;9782;52.930;15.562;2022-11-18T09:09:47;4.87;;;3.53;;
18689;SDS011;9782;52.930;15.562;2022-11-18T09:12:14;3.97;;;3.03;;
18689;SDS011;9782;52.930;15.562;2022-11-18T09:14:41;3.90;;;2.57;;
18689;SDS011;9782;52.930;15.562;2022-11-18T09:17:10;3.97;;;2.83;;
18689;SDS011;9782;52.930;15.562;2022-11-18T09:19:38;3.33;;;2.73;;
18689;SDS011;9782;52.930;15.562;2022-11-18T09:22:05;5.63;;;3.47;;
18689;SDS011;9782;52.930;15.562;2022-11-18T09:24:33;5.10;;;3.07;;
18689;SDS011;9782;52.930;15.562;2022-11-18T09:27:01;3.37;;;2.63;;
18689;SDS011;9782;52.930;15.562;2022-11-18T09:29:29;3.77;;;3.17;;
18689;SDS011;9782;52.930;15.562;2022-11-18T09:31:56;3.83;;;2.80;;
18689;SDS011;9782;52.930;15.562;2022-11-18T09:34:27;4.27;;;2.40;;
18689;SDS011;9782;52.930;15.562;2022-11-18T09:36:55;3.97;;;2.83;;
18689;SDS011;9782;52.930;15.562;2022-11-18T09:39:22;4.27;;;3.00;;
18689;SDS011;9782;52.930;15.562;2022-11-18T09:41:52;3.40;;;2.87;;
18689;SDS011;9782;52.930;15.562;2022-11-18T09:44:32;3.07;;;2.70;;
18689;SDS011;9782;52.930;15.562;2022-11-18T09:47:10;3.07;;;2.33;;
18689;SDS011;9782;52.930;15.562;2022-11-18T09:49:43;4.10;;;3.00;;
18689;SDS011;9782;52.930;15.562;2022-11-18T09:52:12;3.00;;;2.30;;
18689;SDS011;9782;52.930;15.562;2022-11-18T09:54:43;4.47;;;3.00;;
18689;SDS011;9782;52.930;15.562;2022-11-18T09:57:13;4.13;;;2.83;;
18689;SDS011;9782;52.930;15.562;2022-11-18T09:59:41;3.43;;;2.50;;
18689;SDS011;9782;52.930;15.562;2022-11-18T10:02:21;3.87;;;2.67;;
18689;SDS011;9782;52.930;15.562;2022-11-18T10:04:55;3.67;;;2.83;;
18689;SDS011;9782;52.930;15.562;2022-11-18T10:07:29;3.23;;;2.27;;
18689;SDS011;9782;52.930;15.562;2022-11-18T10:10:03;4.13;;;3.07;;
18689;SDS011;9782;52.930;15.562;2022-11-18T10:12:38;3.53;;;2.43;;
18689;SDS011;9782;52.930;15.562;2022-11-18T10:15:16;5.63;;;3.07;;
18689;SDS011;9782;52.930;15.562;2022-11-18T10:17:50;4.67;;;3.03;;
18689;SDS011;9782;52.930;15.562;2022-11-18T10:20:31;3.00;;;2.47;;
18689;SDS011;9782;52.930;15.562;2022-11-18T10:23:08;4.67;;;2.87;;
18689;SDS011;9782;52.930;15.562;2022-11-18T10:25:40;3.97;;;2.80;;
18689;SDS011;9782;52.930;15.562;2022-11-18T10:28:13;4.07;;;2.80;;
18689;SDS011;9782;52.930;15.562;2022-11-18T10:30:43;4.47;;;3.47;;
18689;SDS011;9782;52.930;15.562;2022-11-18T10:33:18;4.10;;;3.00;;
18689;SDS011;9782;52.930;15.562;2022-11-18T10:35:51;3.77;;;2.73;;
18689;SDS011;9782;52.930;15.562;2022-11-18T10:38:36;3.47;;;2.83;;
18689;SDS011;9782;52.930;15.562;2022-11-18T10:41:04;4.43;;;2.90;;
18689;SDS011;9782;52.930;15.562;2022-11-18T10:43:41;3.60;;;2.80;;
18689;SDS011;9782;52.930;15.562;2022-11-18T10:46:18;5.47;;;3.23;;
18689;SDS011;9782;52.930;15.562;2022-11-18T10:49:11;4.10;;;2.53;;
18689;SDS011;9782;52.930;15.562;2022-11-18T10:51:42;3.57;;;2.80;;
18689;SDS011;9782;52.930;15.562;2022-11-18T10:54:13;4.33;;;3.30;;
18689;SDS011;9782;52.930;15.562;2022-11-18T10:56:49;3.70;;;2.87;;
18689;SDS011;9782;52.930;15.562;2022-11-18T10:59:20;4.70;;;3.07;;
18689;SDS011;9782;52.930;15.562;2022-11-18T11:01:58;4.13;;;2.97;;
18689;SDS011;9782;52.930;15.562;2022-11-18T11:04:26;4.97;;;3.50;;
18689;SDS011;9782;52.930;15.562;2022-11-18T11:06:56;4.27;;;3.00;;
18689;SDS011;9782;52.930;15.562;2022-11-18T11:09:25;4.07;;;2.90;;
18689;SDS011;9782;52.930;15.562;2022-11-18T11:11:58;5.60;;;3.47;;
18689;SDS011;9782;52.930;15.562;2022-11-18T11:14:30;4.23;;;3.03;;
18689;SDS011;9782;52.930;15.562;2022-11-18T11:17:03;4.20;;;2.97;;
18689;SDS011;9782;52.930;15.562;2022-11-18T11:19:47;4.53;;;3.10;;
18689;SDS011;9782;52.930;15.562;2022-11-18T11:22:18;4.43;;;2.50;;
18689;SDS011;9782;52.930;15.562;2022-11-18T11:24:45;4.23;;;3.20;;
18689;SDS011;9782;52.930;15.562;2022-11-18T11:27:19;4.67;;;2.90;;
18689;SDS011;9782;52.930;15.562;2022-11-18T11:30:02;4.33;;;2.97;;
18689;SDS011;9782;52.930;15.562;2022-11-18T11:35:46;4.43;;;2.80;;
18689;SDS011;9782;52.930;15.562;2022-11-18T11:38:20;4.07;;;2.43;;
18689;SDS011;9782;52.930;15.562;2022-11-18T11:40:57;4.13;;;2.73;;
18689;SDS011;9782;52.930;15.562;2022-11-18T11:43:39;3.70;;;2.40;;
18689;SDS011;9782;52.930;15.562;2022-11-18T11:46:20;3.73;;;2.30;;
18689;SDS011;9782;52.930;15.562;2022-11-18T11:48:57;4.27;;;2.67;;
18689;SDS011;9782;52.930;15.562;2022-11-18T11:51:38;4.67;;;2.60;;
18689;SDS011;9782;52.930;15.562;2022-11-18T11:54:26;3.40;;;2.40;;
18689;SDS011;9782;52.930;15.562;2022-11-18T11:57:03;2.57;;;1.90;;
18689;SDS011;9782;52.930;15.562;2022-11-18T11:59:38;1.67;;;1.40;;
18689;SDS011;9782;52.930;15.562;2022-11-18T12:02:19;2.63;;;1.47;;
18689;SDS011;9782;52.930;15.562;2022-11-18T12:05:17;2.43;;;1.60;;
18689;SDS011;9782;52.930;15.562;2022-11-18T12:07:51;2.33;;;1.70;;
18689;SDS011;9782;52.930;15.562;2022-11-18T12:10:25;2.50;;;1.50;;
18689;SDS011;9782;52.930;15.562;2022-11-18T12:13:01;2.83;;;1.80;;
18689;SDS011;9782;52.930;15.562;2022-11-18T12:15:42;2.40;;;1.70;;
18689;SDS011;9782;52.930;15.562;2022-11-18T12:18:18;3.60;;;1.87;;
18689;SDS011;9782;52.930;15.562;2022-11-18T12:20:50;2.37;;;1.70;;
18689;SDS011;9782;52.930;15.562;2022-11-18T12:23:20;2.27;;;1.77;;
18689;SDS011;9782;52.930;15.562;2022-11-18T12:25:57;2.50;;;1.80;;
18689;SDS011;9782;52.930;15.562;2022-11-18T12:28:30;2.87;;;1.80;;
18689;SDS011;9782;52.930;15.562;2022-11-18T12:33:56;2.70;;;1.80;;
18689;SDS011;9782;52.930;15.562;2022-11-18T12:36:25;2.47;;;1.50;;
18689;SDS011;9782;52.930;15.562;2022-11-18T12:38:54;2.23;;;1.67;;
18689;SDS011;9782;52.930;15.562;2022-11-18T12:44:36;2.37;;;1.73;;
18689;SDS011;9782;52.930;15.562;2022-11-18T12:47:04;3.47;;;1.63;;
18689;SDS011;9782;52.930;15.562;2022-11-18T12:52:49;2.37;;;1.90;;
18689;SDS011;9782;52.930;15.562;2022-11-18T12:55:20;2.50;;;1.43;;
18689;SDS011;9782;52.930;15.562;2022-11-18T12:58:20;2.37;;;1.60;;
18689;SDS011;9782;52.930;15.562;2022-11-18T13:00:48;1.87;;;1.40;;
18689;SDS011;9782;52.930;15.562;2022-11-18T13:03:22;3.70;;;1.70;;
18689;SDS011;9782;52.930;15.562;2022-11-18T13:05:58;3.50;;;1.60;;
18689;SDS011;9782;52.930;15.562;2022-11-18T13:08:27;3.20;;;1.50;;
18689;SDS011;9782;52.930;15.562;2022-11-18T13:10:56;2.33;;;1.57;;
18689;SDS011;9782;52.930;15.562;2022-11-18T13:13:44;2.20;;;1.60;;
18689;SDS011;9782;52.930;15.562;2022-11-18T13:16:13;2.13;;;1.50;;
18689;SDS011;9782;52.930;15.562;2022-11-18T13:19:02;2.10;;;1.33;;
18689;SDS011;9782;52.930;15.562;2022-11-18T13:21:29;1.97;;;1.40;;
18689;SDS011;9782;52.930;15.562;2022-11-18T13:24:13;2.63;;;1.50;;
18689;SDS011;9782;52.930;15.562;2022-11-18T13:26:42;1.93;;;1.53;;
18689;SDS011;9782;52.930;15.562;2022-11-18T13:29:16;2.70;;;1.30;;
18689;SDS011;9782;52.930;15.562;2022-11-18T13:31:53;2.10;;;1.47;;
18689;SDS011;9782;52.930;15.562;2022-11-18T13:34:28;2.10;;;1.53;;
18689;SDS011;9782;52.930;15.562;2022-11-18T13:36:57;2.03;;;1.60;;
18689;SDS011;9782;52.930;15.562;2022-11-18T13:39:26;3.20;;;1.63;;
18689;SDS011;9782;52.930;15.562;2022-11-18T13:42:01;2.20;;;1.57;;
18689;SDS011;9782;52.930;15.562;2022-11-18T13:44:33;2.50;;;1.60;;
18689;SDS011;9782;52.930;15.562;2022-11-18T13:47:03;2.20;;;1.60;;
18689;SDS011;9782;52.930;15.562;2022-11-18T13:49:42;2.10;;;1.47;;
18689;SDS011;9782;52.930;15.562;2022-11-18T13:52:18;2.20;;;1.67;;
18689;SDS011;9782;52.930;15.562;2022-11-18T13:54:51;2.87;;;1.70;;
18689;SDS011;9782;52.930;15.562;2022-11-18T13:57:21;2.37;;;1.47;;
18689;SDS011;9782;52.930;15.562;2022-11-18T13:59:52;3.37;;;1.70;;
18689;SDS011;9782;52.930;15.562;2022-11-18T14:02:20;2.17;;;1.60;;
18689;SDS011;9782;52.930;15.562;2022-11-18T14:04:49;2.50;;;1.70;;
18689;SDS011;9782;52.930;15.562;2022-11-18T14:07:23;2.90;;;1.57;;
18689;SDS011;9782;52.930;15.562;2022-11-18T14:09:53;2.63;;;1.53;;
18689;SDS011;9782;52.930;15.562;2022-11-18T14:12:23;2.13;;;1.53;;
18689;SDS011;9782;52.930;15.562;2022-11-18T14:15:10;2.20;;;1.50;;
18689;SDS011;9782;52.930;15.562;2022-11-18T14:17:47;4.53;;;1.23;;
18689;SDS011;9782;52.930;15.562;2022-11-18T14:20:16;2.90;;;1.27;;
18689;SDS011;9782;52.930;15.562;2022-11-18T14:22:44;2.10;;;1.47;;
18689;SDS011;9782;52.930;15.562;2022-11-18T14:25:16;2.00;;;1.37;;
18689;SDS011;9782;52.930;15.562;2022-11-18T14:27:46;2.50;;;1.30;;
18689;SDS011;9782;52.930;15.562;2022-11-18T14:30:29;2.07;;;1.40;;
18689;SDS011;9782;52.930;15.562;2022-11-18T14:33:11;2.03;;;1.30;;
18689;SDS011;9782;52.930;15.562;2022-11-18T14:35:40;2.07;;;1.10;;
18689;SDS011;9782;52.930;15.562;2022-11-18T14:38:12;2.30;;;1.37;;
18689;SDS011;9782;52.930;15.562;2022-11-18T14:40:40;1.73;;;1.50;;
18689;SDS011;9782;52.930;15.562;2022-11-18T14:43:08;2.67;;;1.30;;
18689;SDS011;9782;52.930;15.562;2022-11-18T14:45:38;2.57;;;1.37;;
18689;SDS011;9782;52.930;15.562;2022-11-18T14:48:05;3.87;;;1.57;;
18689;SDS011;9782;52.930;15.562;2022-11-18T14:50:36;2.10;;;1.23;;
18689;SDS011;9782;52.930;15.562;2022-11-18T14:53:03;1.60;;;1.23;;
18689;SDS011;9782;52.930;15.562;2022-11-18T14:55:30;2.43;;;1.43;;
18689;SDS011;9782;52.930;15.562;2022-11-18T14:57:57;2.43;;;1.50;;
18689;SDS011;9782;52.930;15.562;2022-11-18T15:00:24;1.70;;;1.40;;
18689;SDS011;9782;52.930;15.562;2022-11-18T15:02:53;2.57;;;1.57;;
18689;SDS011;9782;52.930;15.562;2022-11-18T15:05:20;1.60;;;1.20;;
18689;SDS011;9782;52.930;15.562;2022-11-18T15:07:47;2.33;;;1.27;;
18689;SDS011;9782;52.930;15.562;2022-11-18T15:10:14;1.97;;;1.30;;
18689;SDS011;9782;52.930;15.562;2022-11-18T15:12:42;4.50;;;1.70;;
18689;SDS011;9782;52.930;15.562;2022-11-18T15:15:09;5.37;;;2.90;;